Terminal Aerodrome Forecast
Issued by NWS Sterling, VA

Current Version | Previous Version | Graphics & Text | Print | Product List | Glossary On
Versions: 1 2 3 4 5 6 7 8 9 10 11 12 13 14 15 16 17 18 19 20 21 22 23 24 25
000
FTUS41 KLWX 221100
TAFDCA
TAF
KDCA 221137Z 2212/2312 34012KT 6SM -SHRA SCT008 OVC015
     FM221300 35016G24KT 6SM -SHRA OVC015
     FM221800 34017G25KT P6SM OVC025
     FM230100 34018G26KT P6SM BKN040
     FM230900 31015KT P6SM BKN030=

USA.gov is the U.S. government's official web portal to all federal, state and local government web resources and services.